Time;durP1;ratioP1;P1;durP2;ratioP2;P2;SDS_P1;SDS_P2;PMS_P1;PMS_P2;Temp;Humidity;BMP_temperature;BMP_pressure;BME280_temperature;BME280_humidity;BME280_pressure;Samples;Min_cycle;Max_cycle;Signal;HPM_P1;HPM_P2
2021/11/13 00:00:20;;;;;;;49.50;18.17;;;;;;;;;;5054157;28;20025;-57
2021/11/13 00:02:46;;;;;;;60.13;19.07;;;;;;;;;;5049145;28;20206;-55
2021/11/13 00:05:12;;;;;;;60.73;19.17;;;;;;;;;;5033898;28;20079;-56
2021/11/13 00:07:38;;;;;;;44.60;17.37;;;;;;;;;;5033446;28;20498;-55
2021/11/13 00:10:05;;;;;;;41.30;17.07;;;;;;;;;;5034212;28;20104;-57
2021/11/13 00:12:31;;;;;;;21.67;14.83;;;;;;;;;;5033980;28;20080;-57
2021/11/13 00:14:57;;;;;;;54.13;18.80;;;;;;;;;;5033799;28;20453;-55
2021/11/13 00:17:23;;;;;;;42.40;18.57;;;;;;;;;;5033235;28;20026;-57
2021/11/13 00:19:49;;;;;;;53.43;17.80;;;;;;;;;;5033026;28;20029;-57
2021/11/13 00:22:15;;;;;;;56.13;20.20;;;;;;;;;;5033906;28;20052;-55
2021/11/13 00:24:41;;;;;;;52.17;20.50;;;;;;;;;;5033735;28;20026;-57
2021/11/13 00:27:08;;;;;;;62.83;20.20;;;;;;;;;;5033073;28;20052;-57
2021/11/13 00:29:34;;;;;;;42.57;16.13;;;;;;;;;;5033643;28;20021;-57
2021/11/13 00:32:00;;;;;;;81.93;21.20;;;;;;;;;;5033686;28;20390;-57
2021/11/13 00:34:26;;;;;;;61.10;18.27;;;;;;;;;;5033479;28;20042;-57
2021/11/13 00:36:52;;;;;;;39.67;18.17;;;;;;;;;;5032742;28;20464;-56
2021/11/13 00:39:18;;;;;;;77.13;17.07;;;;;;;;;;5033543;28;20364;-56
2021/11/13 00:41:44;;;;;;;40.87;17.43;;;;;;;;;;5033542;28;20032;-57
2021/11/13 00:44:11;;;;;;;37.67;17.63;;;;;;;;;;5033301;28;20468;-57
2021/11/13 00:46:37;;;;;;;22.40;18.50;;;;;;;;;;5032460;28;20026;-57
2021/11/13 00:49:05;;;;;;;33.30;18.10;;;;;;;;;;5033105;28;20039;-56
2021/11/13 00:51:31;;;;;;;23.43;16.67;;;;;;;;;;5033373;28;20416;-56
2021/11/13 00:53:57;;;;;;;20.90;17.30;;;;;;;;;;5032826;28;20041;-57
2021/11/13 00:56:23;;;;;;;23.50;16.30;;;;;;;;;;5032456;28;20095;-57
2021/11/13 00:58:49;;;;;;;20.03;16.43;;;;;;;;;;5033146;28;20057;-57
2021/11/13 01:01:15;;;;;;;25.13;18.80;;;;;;;;;;5033291;28;20506;-57
2021/11/13 01:03:41;;;;;;;19.33;17.43;;;;;;;;;;5045339;28;20110;-57
2021/11/13 01:06:07;;;;;;;36.00;17.93;;;;;;;;;;5052609;28;20471;-56
2021/11/13 01:08:33;;;;;;;44.87;17.60;;;;;;;;;;5052543;28;20029;-57
2021/11/13 01:10:59;;;;;;;30.57;16.43;;;;;;;;;;5053017;28;20482;-55
2021/11/13 01:13:25;;;;;;;25.93;16.57;;;;;;;;;;5052461;28;20033;-56
2021/11/13 01:15:52;;;;;;;28.40;18.13;;;;;;;;;;5052440;28;20116;-56
2021/11/13 01:18:18;;;;;;;31.77;17.07;;;;;;;;;;5052167;28;20374;-52
2021/11/13 01:20:44;;;;;;;21.17;18.00;;;;;;;;;;5052985;28;20537;-53
2021/11/13 01:23:10;;;;;;;18.53;15.93;;;;;;;;;;5052837;28;20053;-55
2021/11/13 01:25:36;;;;;;;21.60;18.50;;;;;;;;;;5052321;28;20060;-58
2021/11/13 01:28:02;;;;;;;20.43;17.60;;;;;;;;;;5051560;28;20522;-56
2021/11/13 01:30:28;;;;;;;18.73;16.83;;;;;;;;;;5052221;28;20109;-54
2021/11/13 01:32:54;;;;;;;20.23;18.03;;;;;;;;;;5052709;28;20024;-57
2021/11/13 01:35:22;;;;;;;18.53;15.40;;;;;;;;;;5052097;28;20037;-54
2021/11/13 01:37:48;;;;;;;18.73;16.60;;;;;;;;;;5051768;28;20029;-54
2021/11/13 01:40:16;;;;;;;17.73;16.03;;;;;;;;;;5052226;28;20025;-56
2021/11/13 01:42:42;;;;;;;20.37;17.40;;;;;;;;;;5052217;28;20025;-56
2021/11/13 01:45:09;;;;;;;30.20;17.83;;;;;;;;;;5051839;28;20028;-57
2021/11/13 01:47:36;;;;;;;92.93;18.67;;;;;;;;;;5051565;28;20029;-56
2021/11/13 01:50:07;;;;;;;52.77;18.27;;;;;;;;;;5052270;28;20048;-57
2021/11/13 01:52:33;;;;;;;44.57;16.00;;;;;;;;;;5052258;28;20033;-56
2021/11/13 01:55:00;;;;;;;33.33;14.33;;;;;;;;;;5051781;28;20137;-57
2021/11/13 01:57:33;;;;;;;121.40;23.37;;;;;;;;;;5051267;28;20060;-55
2021/11/13 01:59:59;;;;;;;51.20;14.40;;;;;;;;;;5052249;28;20437;-56
2021/11/13 02:02:25;;;;;;;64.77;16.67;;;;;;;;;;5052074;28;20083;-55
2021/11/13 02:04:51;;;;;;;197.87;30.27;;;;;;;;;;5051936;28;20427;-57
2021/11/13 02:07:17;;;;;;;126.63;18.27;;;;;;;;;;5051542;28;20037;-57
2021/11/13 02:09:43;;;;;;;77.27;16.33;;;;;;;;;;5051694;28;20055;-57
2021/11/13 02:12:09;;;;;;;167.33;25.87;;;;;;;;;;5052050;28;20463;-54
2021/11/13 02:14:35;;;;;;;191.67;27.50;;;;;;;;;;5051913;28;20064;-56
2021/11/13 02:17:01;;;;;;;196.73;21.40;;;;;;;;;;5051272;28;20029;-56
2021/11/13 02:19:27;;;;;;;84.67;19.73;;;;;;;;;;5051972;28;20040;-55
2021/11/13 02:21:53;;;;;;;119.87;18.57;;;;;;;;;;5051781;28;20033;-57
2021/11/13 02:24:19;;;;;;;94.33;19.60;;;;;;;;;;5051751;28;20028;-55
2021/11/13 02:26:45;;;;;;;76.30;19.77;;;;;;;;;;5050834;28;20032;-56
2021/11/13 02:29:11;;;;;;;72.77;17.37;;;;;;;;;;5051997;28;20075;-57
2021/11/13 02:31:39;;;;;;;114.63;20.03;;;;;;;;;;5051905;28;20025;-57
2021/11/13 02:34:07;;;;;;;77.93;16.50;;;;;;;;;;5051705;28;20044;-57
2021/11/13 02:36:33;;;;;;;105.60;19.57;;;;;;;;;;5051003;28;20033;-57
2021/11/13 02:38:59;;;;;;;83.80;16.07;;;;;;;;;;5051735;28;20280;-56
2021/11/13 02:41:29;;;;;;;64.93;16.17;;;;;;;;;;5051542;28;20032;-57
2021/11/13 02:43:56;;;;;;;63.57;16.33;;;;;;;;;;5053737;28;20496;-56
2021/11/13 02:46:22;;;;;;;49.80;15.53;;;;;;;;;;5054901;28;20029;-54
2021/11/13 02:48:49;;;;;;;81.57;15.70;;;;;;;;;;5055659;28;20075;-55
2021/11/13 02:51:15;;;;;;;53.13;17.10;;;;;;;;;;5055437;28;20052;-56
2021/11/13 02:53:43;;;;;;;50.23;16.23;;;;;;;;;;5055381;28;20021;-57
2021/11/13 02:56:10;;;;;;;63.03;17.13;;;;;;;;;;5054627;28;20025;-58
2021/11/13 02:58:37;;;;;;;55.40;15.57;;;;;;;;;;5055322;28;20115;-56
2021/11/13 03:01:13;;;;;;;35.00;19.17;;;;;;;;;;5055362;28;20052;-56
2021/11/13 03:03:39;;;;;;;50.27;16.67;;;;;;;;;;5055321;28;20025;-57
2021/11/13 03:06:10;;;;;;;43.40;15.63;;;;;;;;;;5055033;28;20451;-54
2021/11/13 03:08:36;;;;;;;36.87;14.80;;;;;;;;;;5054893;28;20086;-55
2021/11/13 03:11:05;;;;;;;33.60;15.10;;;;;;;;;;5055145;28;20463;-57
2021/11/13 03:13:31;;;;;;;18.33;13.63;;;;;;;;;;5055134;28;20021;-56
2021/11/13 03:15:58;;;;;;;74.03;20.07;;;;;;;;;;5054828;28;20053;-57
2021/11/13 03:18:24;;;;;;;22.97;16.43;;;;;;;;;;5054398;28;20032;-56
2021/11/13 03:20:50;;;;;;;29.53;15.20;;;;;;;;;;5054802;28;20021;-53
2021/11/13 03:23:17;;;;;;;22.53;14.53;;;;;;;;;;5054570;28;20060;-55
2021/11/13 03:25:54;;;;;;;22.00;15.77;;;;;;;;;;5054651;28;20132;-57
2021/11/13 03:28:22;;;;;;;37.57;16.43;;;;;;;;;;5054562;28;20107;-57
2021/11/13 03:30:48;;;;;;;17.13;15.37;;;;;;;;;;5054736;28;20028;-57
2021/11/13 03:33:14;;;;;;;18.83;12.80;;;;;;;;;;5054596;28;20032;-55
2021/11/13 03:35:40;;;;;;;31.80;16.70;;;;;;;;;;5054312;28;20047;-53
2021/11/13 03:38:15;;;;;;;31.07;16.03;;;;;;;;;;5054105;28;20485;-57
2021/11/13 03:40:43;;;;;;;31.67;14.83;;;;;;;;;;5054650;28;20025;-56
2021/11/13 03:43:09;;;;;;;32.43;15.37;;;;;;;;;;5054295;28;20477;-57
2021/11/13 03:45:37;;;;;;;21.73;15.83;;;;;;;;;;5054504;28;20102;-57
2021/11/13 03:48:03;;;;;;;17.53;14.50;;;;;;;;;;5053499;28;20021;-57
2021/11/13 03:50:29;;;;;;;41.80;15.97;;;;;;;;;;5054257;28;20072;-57
2021/11/13 03:52:55;;;;;;;30.67;15.57;;;;;;;;;;5054341;28;20048;-57
2021/11/13 03:55:22;;;;;;;49.13;16.50;;;;;;;;;;5053154;28;20082;-57
2021/11/13 03:57:49;;;;;;;35.60;16.60;;;;;;;;;;5053608;28;20382;-57
2021/11/13 04:00:15;;;;;;;23.07;15.93;;;;;;;;;;5054205;28;20538;-56
2021/11/13 04:02:44;;;;;;;36.73;17.50;;;;;;;;;;5053897;28;20052;-55
2021/11/13 04:05:10;;;;;;;32.73;16.77;;;;;;;;;;5054344;28;20037;-57
2021/11/13 04:07:36;;;;;;;30.13;15.47;;;;;;;;;;5053245;28;20037;-57
2021/11/13 04:10:04;;;;;;;32.83;15.60;;;;;;;;;;5054132;28;20021;-56
2021/11/13 04:12:30;;;;;;;18.80;15.87;;;;;;;;;;5053874;28;20028;-57
2021/11/13 04:14:56;;;;;;;23.80;15.17;;;;;;;;;;5053887;28;20091;-57
2021/11/13 04:17:22;;;;;;;28.40;16.73;;;;;;;;;;5052956;28;20037;-57
2021/11/13 04:19:48;;;;;;;26.30;17.20;;;;;;;;;;5053910;28;20032;-56
2021/11/13 04:22:14;;;;;;;23.83;16.20;;;;;;;;;;5053639;28;20031;-56
2021/11/13 04:24:40;;;;;;;17.70;15.13;;;;;;;;;;5054246;28;20095;-55
2021/11/13 04:27:06;;;;;;;38.67;19.70;;;;;;;;;;5052704;28;20434;-56
2021/11/13 04:29:32;;;;;;;47.20;20.37;;;;;;;;;;5053615;28;20029;-57
2021/11/13 04:31:58;;;;;;;46.77;20.27;;;;;;;;;;5046473;28;20398;-57
2021/11/13 04:34:26;;;;;;;17.63;15.73;;;;;;;;;;5053116;28;20091;-57
2021/11/13 04:36:54;;;;;;;16.77;15.00;;;;;;;;;;5052964;28;20418;-57
2021/11/13 04:39:21;;;;;;;24.20;16.37;;;;;;;;;;5053624;28;20035;-55
2021/11/13 04:41:47;;;;;;;21.37;17.27;;;;;;;;;;5053433;28;20418;-56
2021/11/13 04:44:13;;;;;;;25.43;18.20;;;;;;;;;;5053097;28;20064;-56
2021/11/13 04:46:39;;;;;;;20.07;15.27;;;;;;;;;;5050895;28;20033;-57
2021/11/13 04:49:05;;;;;;;33.67;19.63;;;;;;;;;;5053147;28;20040;-57
2021/11/13 04:51:31;;;;;;;35.60;18.57;;;;;;;;;;5053259;28;20479;-57
2021/11/13 04:53:57;;;;;;;31.60;19.40;;;;;;;;;;5053131;28;20387;-56
2021/11/13 04:56:23;;;;;;;21.50;16.73;;;;;;;;;;5052466;28;20021;-57
2021/11/13 04:58:49;;;;;;;30.97;20.23;;;;;;;;;;5052847;28;20024;-57
2021/11/13 05:01:14;;;;;;;19.33;16.87;;;;;;;;;;5053579;28;20167;-57
2021/11/13 05:03:40;;;;;;;42.90;19.00;;;;;;;;;;5052287;28;20060;-57
2021/11/13 05:06:06;;;;;;;45.53;19.53;;;;;;;;;;5052448;28;20028;-57
2021/11/13 05:08:32;;;;;;;27.67;19.70;;;;;;;;;;5052342;28;20033;-57
2021/11/13 05:10:58;;;;;;;34.83;19.50;;;;;;;;;;5052964;28;20074;-57
2021/11/13 05:13:24;;;;;;;18.53;16.37;;;;;;;;;;5052422;28;20024;-57
2021/11/13 05:15:50;;;;;;;22.70;16.37;;;;;;;;;;5052432;28;20051;-56
2021/11/13 05:18:16;;;;;;;33.33;18.77;;;;;;;;;;5052286;28;20386;-57
2021/11/13 05:20:42;;;;;;;37.20;18.53;;;;;;;;;;5052770;28;20029;-55
2021/11/13 05:23:09;;;;;;;28.77;20.07;;;;;;;;;;5053111;28;20348;-56
2021/11/13 05:25:35;;;;;;;21.07;18.07;;;;;;;;;;5052673;28;20055;-57
2021/11/13 05:28:01;;;;;;;19.93;17.73;;;;;;;;;;5051981;28;20048;-57
2021/11/13 05:30:28;;;;;;;18.20;14.90;;;;;;;;;;5052324;28;20029;-57
2021/11/13 05:32:54;;;;;;;23.23;18.10;;;;;;;;;;5052552;28;20021;-56
2021/11/13 05:35:21;;;;;;;21.43;18.70;;;;;;;;;;5052516;28;20475;-57
2021/11/13 05:37:47;;;;;;;22.23;17.00;;;;;;;;;;5052147;28;20029;-57
2021/11/13 05:40:13;;;;;;;19.17;17.27;;;;;;;;;;5052464;28;20029;-56
2021/11/13 05:42:40;;;;;;;28.60;19.30;;;;;;;;;;5051944;28;20024;-57
2021/11/13 05:45:08;;;;;;;21.77;18.27;;;;;;;;;;5052140;28;20037;-57
2021/11/13 05:47:34;;;;;;;18.57;16.70;;;;;;;;;;5051671;28;20071;-57
2021/11/13 05:50:00;;;;;;;23.97;18.60;;;;;;;;;;5052396;28;20502;-57
2021/11/13 05:52:26;;;;;;;20.97;18.50;;;;;;;;;;5052216;28;20029;-55
2021/11/13 05:54:52;;;;;;;24.13;19.87;;;;;;;;;;5052149;28;20426;-56
2021/11/13 05:57:19;;;;;;;20.13;17.80;;;;;;;;;;5051026;28;20041;-57
2021/11/13 05:59:44;;;;;;;20.50;17.83;;;;;;;;;;5052252;28;20059;-57
2021/11/13 06:02:10;;;;;;;20.97;18.10;;;;;;;;;;5052032;28;20031;-57
2021/11/13 06:04:36;;;;;;;29.97;19.50;;;;;;;;;;5032760;28;20041;-57
2021/11/13 06:07:02;;;;;;;26.27;19.47;;;;;;;;;;5031286;28;20084;-57
2021/11/13 06:09:28;;;;;;;21.73;19.33;;;;;;;;;;5034054;28;20048;-57
2021/11/13 06:11:55;;;;;;;19.60;17.43;;;;;;;;;;5051512;28;20135;-57
2021/11/13 06:14:21;;;;;;;24.63;19.23;;;;;;;;;;5051914;28;20383;-57
2021/11/13 06:16:47;;;;;;;22.70;18.53;;;;;;;;;;5051239;28;20032;-57
2021/11/13 06:19:13;;;;;;;22.70;18.53;;;;;;;;;;5054728;28;20103;-56
2021/11/13 06:21:39;;;;;;;21.30;18.73;;;;;;;;;;5055902;28;20466;-56
2021/11/13 06:24:07;;;;;;;20.33;18.10;;;;;;;;;;5055095;28;20553;-56
2021/11/13 06:26:33;;;;;;;23.53;18.87;;;;;;;;;;5054881;28;20033;-55
2021/11/13 06:28:59;;;;;;;20.03;17.23;;;;;;;;;;5055695;28;20127;-57
2021/11/13 06:31:25;;;;;;;23.95;19.25;;;;;;;;;;5055783;28;20037;-56
2021/11/13 06:33:51;;;;;;;22.57;19.17;;;;;;;;;;5055713;28;20464;-56
2021/11/13 06:36:17;;;;;;;19.00;16.90;;;;;;;;;;5054650;28;20478;-57
2021/11/13 06:38:43;;;;;;;20.42;18.35;;;;;;;;;;5055726;28;20033;-57
2021/11/13 06:41:09;;;;;;;20.97;16.77;;;;;;;;;;5055846;28;20028;-57
2021/11/13 06:43:35;;;;;;;20.42;18.33;;;;;;;;;;5055499;28;20037;-57
2021/11/13 06:46:01;;;;;;;18.57;16.67;;;;;;;;;;5055580;28;20029;-57
2021/11/13 06:48:27;;;;;;;21.87;19.27;;;;;;;;;;5054898;28;20024;-57
2021/11/13 06:50:53;;;;;;;19.07;17.13;;;;;;;;;;5055184;28;20025;-57
2021/11/13 06:53:22;;;;;;;19.23;17.10;;;;;;;;;;5053829;28;20386;-57
2021/11/13 06:55:48;;;;;;;22.47;18.27;;;;;;;;;;5055438;28;20124;-54
2021/11/13 06:58:15;;;;;;;19.53;17.77;;;;;;;;;;5054722;28;20021;-55
2021/11/13 07:00:41;;;;;;;21.03;18.83;;;;;;;;;;5055309;28;20029;-54
2021/11/13 07:03:07;;;;;;;22.63;16.67;;;;;;;;;;5055104;28;20047;-57
2021/11/13 07:05:34;;;;;;;23.07;18.80;;;;;;;;;;5054575;28;20471;-56
2021/11/13 07:08:00;;;;;;;20.57;18.40;;;;;;;;;;5053921;28;20112;-55
2021/11/13 07:10:27;;;;;;;19.45;17.30;;;;;;;;;;5055414;28;20152;-57
2021/11/13 07:12:53;;;;;;;23.95;17.92;;;;;;;;;;5055111;28;20035;-57
2021/11/13 07:15:19;;;;;;;19.47;17.43;;;;;;;;;;5055270;28;20108;-57
2021/11/13 07:17:46;;;;;;;22.07;19.67;;;;;;;;;;5054134;28;20117;-56
2021/11/13 07:20:13;;;;;;;17.27;15.40;;;;;;;;;;5054618;28;20463;-57
2021/11/13 07:22:40;;;;;;;21.57;19.20;;;;;;;;;;5054595;28;20032;-57
2021/11/13 07:25:12;;;;;;;19.30;17.23;;;;;;;;;;5054939;28;20060;-57
2021/11/13 07:27:38;;;;;;;19.50;17.50;;;;;;;;;;5054228;28;20093;-57
2021/11/13 07:30:04;;;;;;;16.73;15.00;;;;;;;;;;5054637;28;20021;-57
2021/11/13 07:32:31;;;;;;;17.73;15.77;;;;;;;;;;5055030;28;20029;-57
2021/11/13 07:34:58;;;;;;;20.00;17.83;;;;;;;;;;5054303;28;20449;-56
2021/11/13 07:37:24;;;;;;;19.73;17.43;;;;;;;;;;5051476;28;20292;-57
2021/11/13 07:39:51;;;;;;;18.58;16.75;;;;;;;;;;5049165;28;20087;-55
2021/11/13 07:42:18;;;;;;;18.93;16.90;;;;;;;;;;5053046;28;20033;-58
2021/11/13 07:44:44;;;;;;;24.30;17.27;;;;;;;;;;5051845;28;20378;-55
2021/11/13 07:47:09;;;;;;;19.02;16.63;;;;;;;;;;5050222;28;20021;-57
2021/11/13 07:49:35;;;;;;;18.23;15.33;;;;;;;;;;5049430;28;20029;-55
2021/11/13 07:52:02;;;;;;;21.10;18.93;;;;;;;;;;5050785;28;20037;-57
2021/11/13 07:54:28;;;;;;;18.40;16.50;;;;;;;;;;5051928;28;20098;-57
2021/11/13 07:56:54;;;;;;;18.95;16.48;;;;;;;;;;5050992;28;20033;-57
2021/11/13 07:59:20;;;;;;;18.57;16.57;;;;;;;;;;5051557;28;20029;-57
2021/11/13 08:01:46;;;;;;;22.90;18.67;;;;;;;;;;5052081;28;20367;-57
2021/11/13 08:04:12;;;;;;;24.10;18.20;;;;;;;;;;5052580;28;20029;-57
2021/11/13 08:06:38;;;;;;;20.10;17.47;;;;;;;;;;5052556;28;20044;-56
2021/11/13 08:09:04;;;;;;;19.20;16.80;;;;;;;;;;5063236;28;20028;-57
2021/11/13 08:11:30;;;;;;;19.48;16.80;;;;;;;;;;5057001;28;20435;-57
2021/11/13 08:13:57;;;;;;;19.98;17.83;;;;;;;;;;5051913;28;20104;-55
2021/11/13 08:16:23;;;;;;;20.55;17.50;;;;;;;;;;5051960;28;20475;-58
2021/11/13 08:18:49;;;;;;;22.93;18.53;;;;;;;;;;5053051;28;20523;-57
2021/11/13 08:21:15;;;;;;;18.27;16.42;;;;;;;;;;5053960;28;20057;-57
2021/11/13 08:23:41;;;;;;;22.95;19.00;;;;;;;;;;5053456;28;20025;-57
2021/11/13 08:26:08;;;;;;;19.05;16.70;;;;;;;;;;5053178;28;20083;-58
2021/11/13 08:28:34;;;;;;;20.63;18.40;;;;;;;;;;5053069;28;20067;-57
2021/11/13 08:31:00;;;;;;;19.27;17.27;;;;;;;;;;5053397;28;20075;-57
2021/11/13 08:33:28;;;;;;;20.20;18.13;;;;;;;;;;5055634;28;20025;-58
2021/11/13 08:35:54;;;;;;;20.85;18.23;;;;;;;;;;5053192;28;20053;-58
2021/11/13 08:38:21;;;;;;;22.58;20.23;;;;;;;;;;5052616;28;20033;-57
2021/11/13 08:40:47;;;;;;;21.20;18.92;;;;;;;;;;5052155;28;20029;-56
2021/11/13 08:43:14;;;;;;;21.90;19.50;;;;;;;;;;5053014;28;20029;-57
2021/11/13 08:45:40;;;;;;;23.65;20.38;;;;;;;;;;5053009;28;20087;-58
2021/11/13 08:48:06;;;;;;;21.85;19.65;;;;;;;;;;5051784;28;20087;-55
2021/11/13 08:50:32;;;;;;;21.48;19.38;;;;;;;;;;5052698;28;20024;-57
2021/11/13 08:53:00;;;;;;;21.45;18.92;;;;;;;;;;5052560;28;20501;-55
2021/11/13 08:55:28;;;;;;;24.08;17.65;;;;;;;;;;5052263;28;20391;-57
2021/11/13 08:57:54;;;;;;;20.65;18.00;;;;;;;;;;5051859;28;20025;-55
2021/11/13 09:00:27;;;;;;;18.33;16.13;;;;;;;;;;5052647;28;20120;-57
2021/11/13 09:02:54;;;;;;;24.45;17.85;;;;;;;;;;5052066;28;20083;-57
2021/11/13 09:05:20;;;;;;;18.35;16.55;;;;;;;;;;5052805;28;20040;-57
2021/11/13 09:07:47;;;;;;;23.38;16.58;;;;;;;;;;5051901;28;20387;-57
2021/11/13 09:10:13;;;;;;;16.48;14.20;;;;;;;;;;5052335;28;20025;-56
2021/11/13 09:12:39;;;;;;;16.70;14.90;;;;;;;;;;5052354;28;20017;-55
2021/11/13 09:15:10;;;;;;;16.30;14.35;;;;;;;;;;5055379;28;20036;-55
2021/11/13 09:17:36;;;;;;;17.63;14.10;;;;;;;;;;5051650;28;20032;-56
2021/11/13 09:20:02;;;;;;;14.10;12.75;;;;;;;;;;5052160;28;20025;-56
2021/11/13 09:22:28;;;;;;;16.77;14.32;;;;;;;;;;5052629;28;20083;-56
2021/11/13 09:24:55;;;;;;;18.15;15.02;;;;;;;;;;5052137;28;20045;-54
2021/11/13 09:27:21;;;;;;;19.25;15.20;;;;;;;;;;5051548;28;20068;-55
2021/11/13 09:29:47;;;;;;;16.02;14.25;;;;;;;;;;5051778;28;20471;-56
2021/11/13 09:32:13;;;;;;;18.85;15.63;;;;;;;;;;5052433;28;20068;-57
2021/11/13 09:34:39;;;;;;;17.70;13.75;;;;;;;;;;5051394;28;20475;-55
2021/11/13 09:37:05;;;;;;;18.77;15.43;;;;;;;;;;5051366;28;20086;-56
2021/11/13 09:39:31;;;;;;;18.33;15.20;;;;;;;;;;5051866;28;20036;-56
2021/11/13 09:41:58;;;;;;;18.73;16.08;;;;;;;;;;5052149;28;20033;-56
2021/11/13 09:44:24;;;;;;;16.60;14.82;;;;;;;;;;5051578;28;20045;-57
2021/11/13 09:46:51;;;;;;;18.38;16.52;;;;;;;;;;5031912;28;20406;-57
2021/11/13 09:49:18;;;;;;;20.92;14.27;;;;;;;;;;5032827;28;20120;-56
2021/11/13 09:51:47;;;;;;;18.17;15.05;;;;;;;;;;5051224;28;20034;-57
2021/11/13 09:54:13;;;;;;;17.10;14.98;;;;;;;;;;5051376;28;20041;-57
2021/11/13 09:56:39;;;;;;;15.93;14.02;;;;;;;;;;5050695;28;20064;-57
2021/11/13 09:59:05;;;;;;;16.95;15.23;;;;;;;;;;5051533;28;20033;-57
2021/11/13 10:01:31;;;;;;;17.05;14.23;;;;;;;;;;5051743;28;20079;-56
2021/11/13 10:03:57;;;;;;;14.38;12.75;;;;;;;;;;5050044;28;20044;-53
2021/11/13 10:06:23;;;;;;;15.98;12.20;;;;;;;;;;5051077;28;20032;-57
2021/11/13 10:08:50;;;;;;;13.98;12.55;;;;;;;;;;5051583;28;20383;-57
2021/11/13 10:11:18;;;;;;;13.95;11.25;;;;;;;;;;5049523;28;20032;-56
2021/11/13 10:13:45;;;;;;;15.27;12.82;;;;;;;;;;5051495;28;20082;-56
2021/11/13 10:16:16;;;;;;;13.77;11.25;;;;;;;;;;5050966;28;20040;-56
2021/11/13 10:18:50;;;;;;;13.43;11.73;;;;;;;;;;5051574;28;20479;-56
2021/11/13 10:21:17;;;;;;;11.55;9.82;;;;;;;;;;5049791;28;20475;-56
2021/11/13 10:23:45;;;;;;;12.98;11.00;;;;;;;;;;5051310;28;20055;-57
2021/11/13 10:26:17;;;;;;;12.45;10.80;;;;;;;;;;5049084;28;20033;-58
2021/11/13 10:28:46;;;;;;;12.23;10.82;;;;;;;;;;5050802;28;20078;-57
2021/11/13 10:31:17;;;;;;;15.23;13.65;;;;;;;;;;5051400;28;20021;-56
2021/11/13 10:33:44;;;;;;;14.38;11.95;;;;;;;;;;5051304;28;20542;-57
2021/11/13 10:36:10;;;;;;;13.02;11.60;;;;;;;;;;5050657;28;20112;-57
2021/11/13 10:38:36;;;;;;;17.63;13.38;;;;;;;;;;5051099;28;20523;-57
2021/11/13 10:41:07;;;;;;;12.85;11.65;;;;;;;;;;5046654;28;20040;-57
2021/11/13 10:43:44;;;;;;;15.32;13.73;;;;;;;;;;5051236;28;20390;-58
2021/11/13 10:46:15;;;;;;;14.82;13.02;;;;;;;;;;5050090;28;20479;-58
2021/11/13 10:48:47;;;;;;;20.70;12.70;;;;;;;;;;5040519;28;20100;-57
2021/11/13 10:51:14;;;;;;;17.13;13.32;;;;;;;;;;5039881;28;20320;-57
2021/11/13 10:53:42;;;;;;;13.98;12.02;;;;;;;;;;5045840;28;20025;-57
2021/11/13 10:56:10;;;;;;;14.43;12.95;;;;;;;;;;5043118;28;20173;-58
2021/11/13 10:58:38;;;;;;;17.70;14.40;;;;;;;;;;5047540;28;20053;-59
2021/11/13 11:01:25;;;;;;;14.43;12.85;;;;;;;;;;5049173;28;20029;-57
2021/11/13 11:03:52;;;;;;;16.92;13.88;;;;;;;;;;5049301;28;20033;-57
2021/11/13 11:06:38;;;;;;;16.63;14.27;;;;;;;;;;5052503;28;20025;-58
2021/11/13 11:09:20;;;;;;;15.52;13.55;;;;;;;;;;5059193;28;20475;-57
2021/11/13 11:11:46;;;;;;;15.27;13.68;;;;;;;;;;5054191;28;20381;-57
2021/11/13 11:14:17;;;;;;;19.50;13.75;;;;;;;;;;5053821;28;20467;-57
2021/11/13 11:16:44;;;;;;;16.10;13.45;;;;;;;;;;5054062;28;20025;-57
2021/11/13 11:19:15;;;;;;;17.20;14.77;;;;;;;;;;5054623;28;20029;-58
2021/11/13 11:21:43;;;;;;;14.70;13.15;;;;;;;;;;5052135;28;20061;-57
2021/11/13 11:24:12;;;;;;;16.98;12.73;;;;;;;;;;5054454;28;20145;-58
2021/11/13 11:26:39;;;;;;;14.82;13.15;;;;;;;;;;5053059;28;20375;-57
2021/11/13 11:29:06;;;;;;;17.88;14.52;;;;;;;;;;5049947;28;20124;-57
2021/11/13 11:31:52;;;;;;;15.10;13.50;;;;;;;;;;5054440;28;20052;-57
2021/11/13 11:34:24;;;;;;;14.25;12.75;;;;;;;;;;5053665;28;20494;-57
2021/11/13 11:36:51;;;;;;;16.88;13.80;;;;;;;;;;5052393;28;20083;-58
2021/11/13 11:39:18;;;;;;;19.58;14.70;;;;;;;;;;5059594;28;20112;-57
2021/11/13 11:41:44;;;;;;;14.77;12.70;;;;;;;;;;5053382;28;20029;-58
2021/11/13 11:44:12;;;;;;;14.90;12.68;;;;;;;;;;5053666;28;20104;-57
2021/11/13 11:46:38;;;;;;;13.52;11.43;;;;;;;;;;5052622;28;20029;-57
2021/11/13 11:49:04;;;;;;;16.13;13.45;;;;;;;;;;5053949;28;20178;-58
2021/11/13 11:51:30;;;;;;;12.88;11.50;;;;;;;;;;5053677;28;20021;-57
2021/11/13 11:54:00;;;;;;;15.63;14.02;;;;;;;;;;5051750;28;20035;-58
2021/11/13 11:56:26;;;;;;;19.20;14.80;;;;;;;;;;5052870;28;20171;-57
2021/11/13 11:58:52;;;;;;;16.33;12.70;;;;;;;;;;5054080;28;20268;-58
2021/11/13 12:01:26;;;;;;;15.63;13.98;;;;;;;;;;5053786;28;20478;-58
2021/11/13 12:03:52;;;;;;;16.55;12.95;;;;;;;;;;5053208;28;20471;-58
2021/11/13 12:06:18;;;;;;;17.38;12.90;;;;;;;;;;5052870;28;20051;-59
2021/11/13 12:09:01;;;;;;;15.57;14.02;;;;;;;;;;5053705;28;20048;-58
2021/11/13 12:11:32;;;;;;;16.10;14.45;;;;;;;;;;5053879;28;20067;-58
2021/11/13 12:14:18;;;;;;;17.33;15.05;;;;;;;;;;5053194;28;20459;-58
2021/11/13 12:16:44;;;;;;;15.43;12.13;;;;;;;;;;5051754;28;20036;-59
2021/11/13 12:19:10;;;;;;;16.92;14.35;;;;;;;;;;5053743;28;20043;-57
2021/11/13 12:21:36;;;;;;;16.48;11.70;;;;;;;;;;5048773;28;20036;-58
2021/11/13 12:24:06;;;;;;;11.23;10.13;;;;;;;;;;5052866;28;20506;-57
2021/11/13 12:26:33;;;;;;;13.90;12.50;;;;;;;;;;5052201;28;20025;-59
2021/11/13 12:29:01;;;;;;;14.52;10.57;;;;;;;;;;5053223;28;20036;-59
2021/11/13 12:31:40;;;;;;;13.73;10.77;;;;;;;;;;5053062;28;20033;-59
2021/11/13 12:34:29;;;;;;;11.27;10.05;;;;;;;;;;5060753;28;20037;-59
2021/11/13 12:37:08;;;;;;;17.65;11.00;;;;;;;;;;5043446;28;20040;-58
2021/11/13 12:39:37;;;;;;;10.25;9.25;;;;;;;;;;5052933;28;20040;-58
2021/11/13 12:42:08;;;;;;;10.73;9.63;;;;;;;;;;5056580;28;20044;-56
2021/11/13 12:44:36;;;;;;;15.20;10.55;;;;;;;;;;5064037;28;20036;-56
2021/11/13 12:47:10;;;;;;;13.05;10.45;;;;;;;;;;5052333;28;20033;-56
2021/11/13 12:49:42;;;;;;;15.65;10.27;;;;;;;;;;5052465;28;20029;-56
2021/11/13 12:52:13;;;;;;;13.50;12.10;;;;;;;;;;5053547;28;20048;-56
2021/11/13 12:54:41;;;;;;;10.48;9.38;;;;;;;;;;5053063;28;20049;-56
2021/11/13 12:57:26;;;;;;;12.32;10.88;;;;;;;;;;5052174;28;20029;-57
2021/11/13 12:59:57;;;;;;;11.63;10.38;;;;;;;;;;5037836;28;20112;-56
2021/11/13 13:02:24;;;;;;;11.40;9.98;;;;;;;;;;5057293;28;20448;-57
2021/11/13 13:04:50;;;;;;;13.35;11.30;;;;;;;;;;5058846;28;20020;-57
2021/11/13 13:07:16;;;;;;;12.85;9.40;;;;;;;;;;5051954;28;20036;-56
2021/11/13 13:09:58;;;;;;;10.85;8.90;;;;;;;;;;5052596;28;20021;-56
2021/11/13 13:12:25;;;;;;;12.05;9.68;;;;;;;;;;5052292;28;20028;-57
2021/11/13 13:14:56;;;;;;;11.63;9.45;;;;;;;;;;5051650;28;20073;-57
2021/11/13 13:17:23;;;;;;;10.65;9.55;;;;;;;;;;5049757;28;20497;-57
2021/11/13 13:19:49;;;;;;;10.85;9.73;;;;;;;;;;5050453;28;20033;-56
2021/11/13 13:22:15;;;;;;;9.60;8.57;;;;;;;;;;5048289;28;20475;-56
2021/11/13 13:24:49;;;;;;;11.60;10.15;;;;;;;;;;5050640;28;20033;-56
2021/11/13 13:27:15;;;;;;;11.23;10.13;;;;;;;;;;5047986;28;20336;-58
2021/11/13 13:29:46;;;;;;;13.90;11.52;;;;;;;;;;5051678;28;20037;-57
2021/11/13 13:32:17;;;;;;;11.07;9.77;;;;;;;;;;5048117;28;20029;-56
2021/11/13 13:35:01;;;;;;;13.68;12.23;;;;;;;;;;5051128;28;20490;-57
2021/11/13 13:37:48;;;;;;;14.55;13.07;;;;;;;;;;5044747;28;20021;-55
2021/11/13 13:40:22;;;;;;;18.20;16.10;;;;;;;;;;5016564;28;20055;-57
2021/11/13 13:42:49;;;;;;;19.77;15.27;;;;;;;;;;5052479;28;20021;-56
2021/11/13 13:45:15;;;;;;;17.05;15.38;;;;;;;;;;5052503;28;20090;-57
2021/11/13 13:47:41;;;;;;;18.20;16.20;;;;;;;;;;5050937;28;20029;-55
2021/11/13 13:50:07;;;;;;;24.35;14.77;;;;;;;;;;5051872;28;20044;-58
2021/11/13 13:52:36;;;;;;;18.55;15.73;;;;;;;;;;5052240;28;20035;-59
2021/11/13 13:55:02;;;;;;;15.25;13.63;;;;;;;;;;5051976;28;20044;-57
2021/11/13 13:57:28;;;;;;;14.93;11.95;;;;;;;;;;5051418;28;20297;-56
2021/11/13 13:59:56;;;;;;;12.98;11.65;;;;;;;;;;5051868;28;20051;-57
2021/11/13 14:02:23;;;;;;;12.40;11.18;;;;;;;;;;5051645;28;20037;-57
2021/11/13 14:04:54;;;;;;;13.68;12.18;;;;;;;;;;5051328;28;20033;-56
2021/11/13 14:07:21;;;;;;;12.95;11.68;;;;;;;;;;5050677;28;20040;-57
2021/11/13 14:09:52;;;;;;;14.80;12.50;;;;;;;;;;5051668;28;20182;-57
2021/11/13 14:12:19;;;;;;;18.35;15.32;;;;;;;;;;5051855;28;20025;-57
2021/11/13 14:14:45;;;;;;;17.25;13.68;;;;;;;;;;5051585;28;20037;-57
2021/11/13 14:17:15;;;;;;;18.17;14.93;;;;;;;;;;5050859;28;20021;-56